createdAt,value
2022-09-28T00:05:12.576Z,97
2022-09-28T00:15:13.158Z,97
2022-09-28T00:25:13.429Z,97
2022-09-28T00:35:14.388Z,98
2022-09-28T00:55:15.820Z,98
2022-09-28T01:05:16.021Z,98
2022-09-28T01:15:16.878Z,98
2022-09-28T01:25:17.111Z,98
2022-09-28T01:35:18.087Z,98
2022-09-28T01:45:19.086Z,99
2022-09-28T01:55:19.277Z,99
2022-09-28T02:05:19.467Z,98
2022-09-28T02:15:20.270Z,98
2022-09-28T02:25:20.872Z,98
2022-09-28T02:35:21.253Z,98
2022-09-28T02:45:21.807Z,98
2022-09-28T02:55:21.998Z,98
2022-09-28T03:05:22.443Z,98
2022-09-28T03:15:22.790Z,98
2022-09-28T03:25:23.532Z,98
2022-09-28T03:45:25.474Z,98
2022-09-28T03:55:26.292Z,98
2022-09-28T04:05:27.167Z,98
2022-09-28T04:15:28.167Z,98
2022-09-28T04:25:28.386Z,98
2022-09-28T04:35:29.431Z,98
2022-09-28T04:55:31.033Z,98
2022-09-28T05:05:31.126Z,98
2022-09-28T05:15:32.159Z,98
2022-09-28T05:35:33.117Z,99
2022-09-28T05:45:33.860Z,99
2022-09-28T05:55:34.193Z,99
2022-09-28T06:05:35.196Z,99
2022-09-28T06:15:35.964Z,99
2022-09-28T06:25:36.937Z,99
2022-09-28T06:35:37.679Z,99
2022-09-28T06:45:38.506Z,99
2022-09-28T06:55:38.696Z,99
2022-09-28T07:05:39.808Z,98
2022-09-28T07:35:41.217Z,98
2022-09-28T07:45:41.853Z,98
2022-09-28T07:55:42.384Z,98
2022-09-28T08:05:42.625Z,97
2022-09-28T08:15:43.088Z,97
2022-09-28T08:25:43.329Z,97
2022-09-28T08:35:43.903Z,97
2022-09-28T08:45:44.457Z,97
2022-09-28T08:55:44.547Z,96
2022-09-28T09:05:45.355Z,96
2022-09-28T09:15:46.062Z,95
2022-09-28T09:25:47.004Z,95
2022-09-28T09:35:47.100Z,94
2022-09-28T09:45:48.261Z,94
2022-09-28T09:55:48.649Z,93
2022-09-28T10:05:49.300Z,92
2022-09-28T10:25:49.669Z,91
2022-09-28T10:35:50.632Z,90
2022-09-28T10:55:51.079Z,89
2022-09-28T11:15:51.977Z,88
2022-09-28T11:25:52.121Z,87
2022-09-28T11:35:52.288Z,85
2022-09-28T11:55:53.429Z,83
2022-09-28T12:05:53.583Z,81
2022-09-28T12:16:13.236Z,83
2022-09-28T12:25:55.068Z,82
2022-09-28T12:46:10.754Z,82
2022-09-28T12:55:57.507Z,81
2022-09-28T13:15:58.456Z,82
2022-09-28T13:25:59.463Z,81
2022-09-28T13:35:59.672Z,83
2022-09-28T14:06:01.740Z,83
2022-09-28T14:26:02.342Z,83
2022-09-28T14:46:03.526Z,84
2022-09-28T15:16:05.882Z,81
2022-09-28T15:26:06.432Z,80
2022-09-28T15:36:06.609Z,82
2022-09-28T15:46:06.939Z,83
2022-09-28T15:56:07.120Z,85
2022-09-28T16:06:07.449Z,86
2022-09-28T16:16:08.448Z,87
2022-09-28T16:26:08.959Z,87
2022-09-28T16:36:09.603Z,87
2022-09-28T16:46:09.987Z,88
2022-09-28T16:56:10.624Z,87
2022-09-28T17:06:11.614Z,88
2022-09-28T17:16:11.914Z,89
2022-09-28T17:26:12.946Z,89
2022-09-28T17:36:13.817Z,90
2022-09-28T17:46:14.629Z,90
2022-09-28T17:56:15.082Z,91
2022-09-28T18:06:16.083Z,91
2022-09-28T18:16:16.551Z,91
2022-09-28T18:26:17.161Z,91
2022-09-28T19:06:18.591Z,92
2022-09-28T19:26:20.055Z,92
2022-09-28T19:36:20.765Z,93
2022-09-28T20:06:22.577Z,93
2022-09-28T20:16:22.991Z,93
2022-09-28T20:26:23.884Z,94
2022-09-28T20:36:24.059Z,94
2022-09-28T20:46:24.529Z,94
2022-09-28T20:56:24.725Z,94
2022-09-28T21:16:25.943Z,95
2022-09-28T21:26:26.454Z,95
2022-09-28T21:36:26.907Z,95
2022-09-28T21:46:27.168Z,95
2022-09-28T21:56:27.797Z,95
2022-09-28T22:06:28.819Z,95
2022-09-28T22:16:29.146Z,95
2022-09-28T22:26:29.653Z,96
2022-09-28T22:36:30.306Z,96
2022-09-28T22:46:31.427Z,96
2022-09-28T22:56:31.807Z,96
2022-09-28T23:16:32.760Z,96
2022-09-28T23:26:33.355Z,96
2022-09-28T23:36:34.048Z,96
2022-09-28T23:46:35.247Z,96
